sensor_id;sensor_type;location;lat;lon;timestamp;P1;durP1;ratioP1;P2;durP2;ratioP2
73428;SDS011;61643;49.564;17.412;2024-03-02T00:02:25;16.92;;;10.82;;
73428;SDS011;61643;49.564;17.412;2024-03-02T00:04:51;23.70;;;11.15;;
73428;SDS011;61643;49.564;17.412;2024-03-02T00:07:17;17.92;;;10.10;;
73428;SDS011;61643;49.564;17.412;2024-03-02T00:09:43;17.63;;;9.90;;
73428;SDS011;61643;49.564;17.412;2024-03-02T00:12:11;20.13;;;9.93;;
73428;SDS011;61643;49.564;17.412;2024-03-02T00:14:41;17.80;;;9.30;;
73428;SDS011;61643;49.564;17.412;2024-03-02T00:17:08;16.15;;;9.25;;
73428;SDS011;61643;49.564;17.412;2024-03-02T00:19:44;16.88;;;9.50;;
73428;SDS011;61643;49.564;17.412;2024-03-02T00:22:10;16.50;;;9.85;;
73428;SDS011;61643;49.564;17.412;2024-03-02T00:24:37;19.92;;;10.00;;
73428;SDS011;61643;49.564;17.412;2024-03-02T00:27:05;17.55;;;10.52;;
73428;SDS011;61643;49.564;17.412;2024-03-02T00:29:33;17.60;;;9.57;;
73428;SDS011;61643;49.564;17.412;2024-03-02T00:32:00;16.50;;;9.52;;
73428;SDS011;61643;49.564;17.412;2024-03-02T00:34:27;19.73;;;10.00;;
73428;SDS011;61643;49.564;17.412;2024-03-02T00:36:53;15.25;;;9.48;;
73428;SDS011;61643;49.564;17.412;2024-03-02T00:39:19;17.20;;;9.30;;
73428;SDS011;61643;49.564;17.412;2024-03-02T00:41:44;17.52;;;9.52;;
73428;SDS011;61643;49.564;17.412;2024-03-02T00:44:12;15.57;;;8.90;;
73428;SDS011;61643;49.564;17.412;2024-03-02T00:46:39;16.98;;;9.30;;
73428;SDS011;61643;49.564;17.412;2024-03-02T00:49:11;14.45;;;8.70;;
73428;SDS011;61643;49.564;17.412;2024-03-02T00:51:46;17.63;;;8.80;;
73428;SDS011;61643;49.564;17.412;2024-03-02T00:54:19;18.63;;;9.50;;
73428;SDS011;61643;49.564;17.412;2024-03-02T00:59:16;15.85;;;9.13;;
73428;SDS011;61643;49.564;17.412;2024-03-02T01:01:42;16.98;;;10.00;;
73428;SDS011;61643;49.564;17.412;2024-03-02T01:04:09;19.63;;;9.55;;
73428;SDS011;61643;49.564;17.412;2024-03-02T01:06:35;15.20;;;9.00;;
73428;SDS011;61643;49.564;17.412;2024-03-02T01:09:01;17.10;;;9.05;;
73428;SDS011;61643;49.564;17.412;2024-03-02T01:11:29;16.83;;;9.32;;
73428;SDS011;61643;49.564;17.412;2024-03-02T01:13:55;15.93;;;9.60;;
73428;SDS011;61643;49.564;17.412;2024-03-02T01:16:21;16.35;;;9.32;;
73428;SDS011;61643;49.564;17.412;2024-03-02T01:18:47;19.52;;;9.50;;
73428;SDS011;61643;49.564;17.412;2024-03-02T01:21:14;16.35;;;9.20;;
73428;SDS011;61643;49.564;17.412;2024-03-02T01:23:40;17.13;;;9.48;;
73428;SDS011;61643;49.564;17.412;2024-03-02T01:26:06;17.23;;;9.85;;
73428;SDS011;61643;49.564;17.412;2024-03-02T01:28:33;17.95;;;8.93;;
73428;SDS011;61643;49.564;17.412;2024-03-02T01:30:59;16.63;;;9.00;;
73428;SDS011;61643;49.564;17.412;2024-03-02T01:33:24;17.60;;;9.02;;
73428;SDS011;61643;49.564;17.412;2024-03-02T01:35:50;21.52;;;9.00;;
73428;SDS011;61643;49.564;17.412;2024-03-02T01:38:16;15.82;;;9.20;;
73428;SDS011;61643;49.564;17.412;2024-03-02T01:40:42;18.17;;;9.25;;
73428;SDS011;61643;49.564;17.412;2024-03-02T01:43:10;16.80;;;9.60;;
73428;SDS011;61643;49.564;17.412;2024-03-02T01:45:36;15.30;;;8.90;;
73428;SDS011;61643;49.564;17.412;2024-03-02T01:48:06;18.85;;;9.73;;
73428;SDS011;61643;49.564;17.412;2024-03-02T01:50:32;14.50;;;8.55;;
73428;SDS011;61643;49.564;17.412;2024-03-02T01:53:00;16.50;;;9.05;;
73428;SDS011;61643;49.564;17.412;2024-03-02T01:55:28;16.73;;;9.35;;
73428;SDS011;61643;49.564;17.412;2024-03-02T01:57:55;18.30;;;10.30;;
73428;SDS011;61643;49.564;17.412;2024-03-02T02:00:22;17.52;;;10.25;;
73428;SDS011;61643;49.564;17.412;2024-03-02T02:02:50;19.63;;;9.63;;
73428;SDS011;61643;49.564;17.412;2024-03-02T02:05:16;17.58;;;9.75;;
73428;SDS011;61643;49.564;17.412;2024-03-02T02:07:42;16.60;;;9.15;;
73428;SDS011;61643;49.564;17.412;2024-03-02T02:10:09;17.08;;;8.68;;
73428;SDS011;61643;49.564;17.412;2024-03-02T02:12:35;19.65;;;10.02;;
73428;SDS011;61643;49.564;17.412;2024-03-02T02:15:02;18.23;;;9.30;;
73428;SDS011;61643;49.564;17.412;2024-03-02T02:17:28;18.65;;;9.00;;
73428;SDS011;61643;49.564;17.412;2024-03-02T02:19:54;19.05;;;9.98;;
73428;SDS011;61643;49.564;17.412;2024-03-02T02:22:20;16.58;;;9.20;;
73428;SDS011;61643;49.564;17.412;2024-03-02T02:24:46;17.52;;;9.50;;
73428;SDS011;61643;49.564;17.412;2024-03-02T02:27:12;16.35;;;9.30;;
73428;SDS011;61643;49.564;17.412;2024-03-02T02:32:07;19.02;;;9.75;;
73428;SDS011;61643;49.564;17.412;2024-03-02T02:34:33;19.45;;;9.10;;
73428;SDS011;61643;49.564;17.412;2024-03-02T02:36:59;19.00;;;9.40;;
73428;SDS011;61643;49.564;17.412;2024-03-02T02:39:25;14.18;;;8.77;;
73428;SDS011;61643;49.564;17.412;2024-03-02T02:41:51;19.33;;;10.02;;
73428;SDS011;61643;49.564;17.412;2024-03-02T02:44:17;18.40;;;9.25;;
73428;SDS011;61643;49.564;17.412;2024-03-02T02:46:43;19.10;;;9.13;;
73428;SDS011;61643;49.564;17.412;2024-03-02T02:51:37;15.88;;;9.10;;
73428;SDS011;61643;49.564;17.412;2024-03-02T02:54:03;20.67;;;9.88;;
73428;SDS011;61643;49.564;17.412;2024-03-02T02:56:29;13.30;;;8.55;;
73428;SDS011;61643;49.564;17.412;2024-03-02T02:58:55;17.33;;;9.13;;
73428;SDS011;61643;49.564;17.412;2024-03-02T03:01:21;20.35;;;9.30;;
73428;SDS011;61643;49.564;17.412;2024-03-02T03:03:47;19.48;;;9.90;;
73428;SDS011;61643;49.564;17.412;2024-03-02T03:06:13;20.17;;;9.20;;
73428;SDS011;61643;49.564;17.412;2024-03-02T03:08:39;17.27;;;8.95;;
73428;SDS011;61643;49.564;17.412;2024-03-02T03:11:05;19.58;;;9.55;;
73428;SDS011;61643;49.564;17.412;2024-03-02T03:13:31;17.25;;;9.38;;
73428;SDS011;61643;49.564;17.412;2024-03-02T03:15:58;18.08;;;9.85;;
73428;SDS011;61643;49.564;17.412;2024-03-02T03:18:24;15.57;;;8.65;;
73428;SDS011;61643;49.564;17.412;2024-03-02T03:20:50;18.55;;;8.80;;
73428;SDS011;61643;49.564;17.412;2024-03-02T03:23:16;16.30;;;9.10;;
73428;SDS011;61643;49.564;17.412;2024-03-02T03:25:42;16.73;;;9.38;;
73428;SDS011;61643;49.564;17.412;2024-03-02T03:28:09;17.60;;;8.75;;
73428;SDS011;61643;49.564;17.412;2024-03-02T03:30:38;20.10;;;9.60;;
73428;SDS011;61643;49.564;17.412;2024-03-02T03:33:05;17.27;;;9.55;;
73428;SDS011;61643;49.564;17.412;2024-03-02T03:35:34;17.80;;;10.18;;
73428;SDS011;61643;49.564;17.412;2024-03-02T03:38:02;19.65;;;9.98;;
73428;SDS011;61643;49.564;17.412;2024-03-02T03:40:28;22.27;;;9.60;;
73428;SDS011;61643;49.564;17.412;2024-03-02T03:42:53;19.10;;;10.52;;
73428;SDS011;61643;49.564;17.412;2024-03-02T03:45:21;19.52;;;10.15;;
73428;SDS011;61643;49.564;17.412;2024-03-02T03:47:47;19.02;;;9.85;;
73428;SDS011;61643;49.564;17.412;2024-03-02T03:50:13;21.17;;;10.30;;
73428;SDS011;61643;49.564;17.412;2024-03-02T03:52:39;18.58;;;9.95;;
73428;SDS011;61643;49.564;17.412;2024-03-02T03:55:05;17.30;;;9.93;;
73428;SDS011;61643;49.564;17.412;2024-03-02T03:57:31;19.75;;;9.57;;
73428;SDS011;61643;49.564;17.412;2024-03-02T03:59:57;23.63;;;10.85;;
73428;SDS011;61643;49.564;17.412;2024-03-02T04:02:23;19.75;;;11.18;;
73428;SDS011;61643;49.564;17.412;2024-03-02T04:04:50;19.33;;;10.18;;
73428;SDS011;61643;49.564;17.412;2024-03-02T04:07:16;17.50;;;9.73;;
73428;SDS011;61643;49.564;17.412;2024-03-02T04:09:42;18.45;;;9.60;;
73428;SDS011;61643;49.564;17.412;2024-03-02T04:12:08;17.70;;;9.65;;
73428;SDS011;61643;49.564;17.412;2024-03-02T04:14:34;19.25;;;9.45;;
73428;SDS011;61643;49.564;17.412;2024-03-02T04:17:00;18.50;;;9.30;;
73428;SDS011;61643;49.564;17.412;2024-03-02T04:19:26;19.33;;;9.95;;
73428;SDS011;61643;49.564;17.412;2024-03-02T04:21:52;17.63;;;9.07;;
73428;SDS011;61643;49.564;17.412;2024-03-02T04:24:18;18.73;;;9.35;;
73428;SDS011;61643;49.564;17.412;2024-03-02T04:26:44;18.02;;;9.50;;
73428;SDS011;61643;49.564;17.412;2024-03-02T04:29:10;17.92;;;9.85;;
73428;SDS011;61643;49.564;17.412;2024-03-02T04:31:36;19.77;;;10.10;;
73428;SDS011;61643;49.564;17.412;2024-03-02T04:34:02;25.23;;;13.25;;
73428;SDS011;61643;49.564;17.412;2024-03-02T04:36:28;34.88;;;19.58;;
73428;SDS011;61643;49.564;17.412;2024-03-02T04:38:54;29.88;;;16.52;;
73428;SDS011;61643;49.564;17.412;2024-03-02T04:41:20;33.63;;;17.83;;
73428;SDS011;61643;49.564;17.412;2024-03-02T04:43:46;26.50;;;13.13;;
73428;SDS011;61643;49.564;17.412;2024-03-02T04:46:12;25.35;;;10.50;;
73428;SDS011;61643;49.564;17.412;2024-03-02T04:48:38;21.40;;;10.45;;
73428;SDS011;61643;49.564;17.412;2024-03-02T04:51:04;18.67;;;9.63;;
73428;SDS011;61643;49.564;17.412;2024-03-02T04:53:29;20.05;;;9.93;;
73428;SDS011;61643;49.564;17.412;2024-03-02T04:55:55;18.98;;;10.15;;
73428;SDS011;61643;49.564;17.412;2024-03-02T04:58:40;31.30;;;16.58;;
73428;SDS011;61643;49.564;17.412;2024-03-02T05:01:06;29.67;;;17.58;;
73428;SDS011;61643;49.564;17.412;2024-03-02T05:03:32;28.85;;;16.60;;
73428;SDS011;61643;49.564;17.412;2024-03-02T05:08:26;25.25;;;14.32;;
73428;SDS011;61643;49.564;17.412;2024-03-02T05:10:52;23.00;;;11.95;;
73428;SDS011;61643;49.564;17.412;2024-03-02T05:13:18;21.52;;;10.50;;
73428;SDS011;61643;49.564;17.412;2024-03-02T05:15:44;20.50;;;9.80;;
73428;SDS011;61643;49.564;17.412;2024-03-02T05:18:10;18.02;;;9.85;;
73428;SDS011;61643;49.564;17.412;2024-03-02T05:20:36;20.38;;;9.90;;
73428;SDS011;61643;49.564;17.412;2024-03-02T05:23:02;16.85;;;9.38;;
73428;SDS011;61643;49.564;17.412;2024-03-02T05:25:28;18.40;;;10.20;;
73428;SDS011;61643;49.564;17.412;2024-03-02T05:27:54;21.08;;;9.68;;
73428;SDS011;61643;49.564;17.412;2024-03-02T05:30:20;21.40;;;9.93;;
73428;SDS011;61643;49.564;17.412;2024-03-02T05:32:46;17.23;;;9.45;;
73428;SDS011;61643;49.564;17.412;2024-03-02T05:35:12;20.40;;;9.82;;
73428;SDS011;61643;49.564;17.412;2024-03-02T05:37:38;18.23;;;9.20;;
73428;SDS011;61643;49.564;17.412;2024-03-02T05:40:04;23.15;;;9.90;;
73428;SDS011;61643;49.564;17.412;2024-03-02T05:42:31;19.33;;;9.10;;
73428;SDS011;61643;49.564;17.412;2024-03-02T05:44:57;20.13;;;9.70;;
73428;SDS011;61643;49.564;17.412;2024-03-02T05:47:23;18.17;;;8.43;;
73428;SDS011;61643;49.564;17.412;2024-03-02T05:49:49;15.82;;;8.80;;
73428;SDS011;61643;49.564;17.412;2024-03-02T05:52:15;18.27;;;10.23;;
73428;SDS011;61643;49.564;17.412;2024-03-02T05:54:41;18.17;;;9.27;;
73428;SDS011;61643;49.564;17.412;2024-03-02T05:57:06;22.55;;;10.85;;
73428;SDS011;61643;49.564;17.412;2024-03-02T06:00:07;31.60;;;14.95;;
73428;SDS011;61643;49.564;17.412;2024-03-02T06:02:34;32.88;;;16.88;;
73428;SDS011;61643;49.564;17.412;2024-03-02T06:05:00;21.75;;;11.68;;
73428;SDS011;61643;49.564;17.412;2024-03-02T06:07:26;21.48;;;11.73;;
73428;SDS011;61643;49.564;17.412;2024-03-02T06:09:52;31.65;;;15.40;;
73428;SDS011;61643;49.564;17.412;2024-03-02T06:12:18;31.38;;;14.93;;
73428;SDS011;61643;49.564;17.412;2024-03-02T06:14:44;25.63;;;14.30;;
73428;SDS011;61643;49.564;17.412;2024-03-02T06:17:10;24.70;;;11.73;;
73428;SDS011;61643;49.564;17.412;2024-03-02T06:19:36;28.15;;;13.07;;
73428;SDS011;61643;49.564;17.412;2024-03-02T06:22:02;31.08;;;15.32;;
73428;SDS011;61643;49.564;17.412;2024-03-02T06:24:29;23.60;;;13.30;;
73428;SDS011;61643;49.564;17.412;2024-03-02T06:26:55;26.48;;;13.90;;
73428;SDS011;61643;49.564;17.412;2024-03-02T06:29:21;29.27;;;15.68;;
73428;SDS011;61643;49.564;17.412;2024-03-02T06:31:47;26.92;;;15.10;;
73428;SDS011;61643;49.564;17.412;2024-03-02T06:34:13;26.52;;;15.02;;
73428;SDS011;61643;49.564;17.412;2024-03-02T06:36:39;24.20;;;14.02;;
73428;SDS011;61643;49.564;17.412;2024-03-02T06:39:06;28.70;;;16.17;;
73428;SDS011;61643;49.564;17.412;2024-03-02T06:41:33;34.38;;;17.17;;
73428;SDS011;61643;49.564;17.412;2024-03-02T06:43:59;43.17;;;18.55;;
73428;SDS011;61643;49.564;17.412;2024-03-02T06:46:25;36.47;;;18.75;;
73428;SDS011;61643;49.564;17.412;2024-03-02T06:48:51;33.15;;;16.25;;
73428;SDS011;61643;49.564;17.412;2024-03-02T06:51:17;33.47;;;15.63;;
73428;SDS011;61643;49.564;17.412;2024-03-02T06:53:43;26.15;;;13.20;;
73428;SDS011;61643;49.564;17.412;2024-03-02T06:56:09;25.23;;;11.77;;
73428;SDS011;61643;49.564;17.412;2024-03-02T06:58:35;21.55;;;10.70;;
73428;SDS011;61643;49.564;17.412;2024-03-02T07:01:01;22.65;;;11.52;;
73428;SDS011;61643;49.564;17.412;2024-03-02T07:03:27;26.92;;;13.57;;
73428;SDS011;61643;49.564;17.412;2024-03-02T07:05:53;26.27;;;13.10;;
73428;SDS011;61643;49.564;17.412;2024-03-02T07:08:19;24.75;;;13.10;;
73428;SDS011;61643;49.564;17.412;2024-03-02T07:10:45;28.95;;;13.10;;
73428;SDS011;61643;49.564;17.412;2024-03-02T07:13:12;28.88;;;12.13;;
73428;SDS011;61643;49.564;17.412;2024-03-02T07:15:41;22.08;;;11.07;;
73428;SDS011;61643;49.564;17.412;2024-03-02T07:18:27;21.45;;;10.23;;
73428;SDS011;61643;49.564;17.412;2024-03-02T07:20:53;21.52;;;10.38;;
73428;SDS011;61643;49.564;17.412;2024-03-02T07:23:21;17.23;;;8.63;;
73428;SDS011;61643;49.564;17.412;2024-03-02T07:25:52;18.10;;;8.60;;
73428;SDS011;61643;49.564;17.412;2024-03-02T07:28:22;19.65;;;9.25;;
73428;SDS011;61643;49.564;17.412;2024-03-02T07:30:58;18.65;;;10.10;;
73428;SDS011;61643;49.564;17.412;2024-03-02T07:33:24;17.10;;;9.27;;
73428;SDS011;61643;49.564;17.412;2024-03-02T07:35:51;15.48;;;8.85;;
73428;SDS011;61643;49.564;17.412;2024-03-02T07:38:17;14.23;;;8.15;;
73428;SDS011;61643;49.564;17.412;2024-03-02T07:40:43;19.77;;;9.10;;
73428;SDS011;61643;49.564;17.412;2024-03-02T07:43:09;16.70;;;9.02;;
73428;SDS011;61643;49.564;17.412;2024-03-02T07:45:35;19.30;;;9.27;;
73428;SDS011;61643;49.564;17.412;2024-03-02T07:48:02;21.67;;;9.60;;
73428;SDS011;61643;49.564;17.412;2024-03-02T07:50:29;15.48;;;8.82;;
73428;SDS011;61643;49.564;17.412;2024-03-02T07:53:00;16.65;;;9.15;;
73428;SDS011;61643;49.564;17.412;2024-03-02T07:55:27;18.05;;;8.45;;
73428;SDS011;61643;49.564;17.412;2024-03-02T07:57:53;17.48;;;9.77;;
73428;SDS011;61643;49.564;17.412;2024-03-02T08:00:18;17.45;;;9.02;;
73428;SDS011;61643;49.564;17.412;2024-03-02T08:02:44;15.75;;;9.45;;
73428;SDS011;61643;49.564;17.412;2024-03-02T08:05:10;21.80;;;8.88;;
73428;SDS011;61643;49.564;17.412;2024-03-02T08:07:36;19.80;;;9.02;;
73428;SDS011;61643;49.564;17.412;2024-03-02T08:10:03;17.98;;;9.30;;
73428;SDS011;61643;49.564;17.412;2024-03-02T08:12:29;19.08;;;8.95;;
73428;SDS011;61643;49.564;17.412;2024-03-02T08:14:55;18.55;;;10.43;;
73428;SDS011;61643;49.564;17.412;2024-03-02T08:17:21;19.60;;;10.48;;
73428;SDS011;61643;49.564;17.412;2024-03-02T08:19:47;18.40;;;9.38;;
73428;SDS011;61643;49.564;17.412;2024-03-02T08:22:14;22.33;;;9.50;;
73428;SDS011;61643;49.564;17.412;2024-03-02T08:24:40;20.80;;;9.38;;
73428;SDS011;61643;49.564;17.412;2024-03-02T08:27:06;19.95;;;9.23;;
73428;SDS011;61643;49.564;17.412;2024-03-02T08:29:32;17.27;;;9.55;;
73428;SDS011;61643;49.564;17.412;2024-03-02T08:31:58;23.92;;;9.70;;
73428;SDS011;61643;49.564;17.412;2024-03-02T08:34:24;19.50;;;9.63;;
73428;SDS011;61643;49.564;17.412;2024-03-02T08:36:50;16.20;;;8.88;;
73428;SDS011;61643;49.564;17.412;2024-03-02T08:39:17;18.45;;;9.07;;
73428;SDS011;61643;49.564;17.412;2024-03-02T08:41:45;18.23;;;9.35;;
73428;SDS011;61643;49.564;17.412;2024-03-02T08:44:12;15.73;;;7.93;;
73428;SDS011;61643;49.564;17.412;2024-03-02T08:46:38;17.30;;;9.50;;
73428;SDS011;61643;49.564;17.412;2024-03-02T08:49:05;24.98;;;12.98;;
73428;SDS011;61643;49.564;17.412;2024-03-02T08:51:31;34.17;;;15.38;;
73428;SDS011;61643;49.564;17.412;2024-03-02T08:53:58;33.30;;;16.25;;
73428;SDS011;61643;49.564;17.412;2024-03-02T08:56:24;31.58;;;13.52;;
73428;SDS011;61643;49.564;17.412;2024-03-02T08:58:51;26.50;;;12.77;;
73428;SDS011;61643;49.564;17.412;2024-03-02T09:01:17;27.90;;;12.35;;
73428;SDS011;61643;49.564;17.412;2024-03-02T09:03:45;25.98;;;11.10;;
73428;SDS011;61643;49.564;17.412;2024-03-02T09:06:11;23.85;;;10.57;;
73428;SDS011;61643;49.564;17.412;2024-03-02T09:08:39;21.92;;;11.52;;
73428;SDS011;61643;49.564;17.412;2024-03-02T09:11:05;17.65;;;9.55;;
73428;SDS011;61643;49.564;17.412;2024-03-02T09:13:32;15.05;;;8.52;;
73428;SDS011;61643;49.564;17.412;2024-03-02T09:15:59;15.63;;;8.70;;
73428;SDS011;61643;49.564;17.412;2024-03-02T09:18:25;18.35;;;9.07;;
73428;SDS011;61643;49.564;17.412;2024-03-02T09:20:51;15.88;;;8.70;;
73428;SDS011;61643;49.564;17.412;2024-03-02T09:23:17;15.77;;;8.90;;
73428;SDS011;61643;49.564;17.412;2024-03-02T09:25:43;15.48;;;8.70;;
73428;SDS011;61643;49.564;17.412;2024-03-02T09:28:09;16.92;;;8.27;;
73428;SDS011;61643;49.564;17.412;2024-03-02T09:30:35;13.70;;;8.20;;
73428;SDS011;61643;49.564;17.412;2024-03-02T09:33:01;18.85;;;8.05;;
73428;SDS011;61643;49.564;17.412;2024-03-02T09:35:29;16.65;;;8.50;;
73428;SDS011;61643;49.564;17.412;2024-03-02T09:37:55;17.35;;;8.15;;
73428;SDS011;61643;49.564;17.412;2024-03-02T09:40:21;16.60;;;8.32;;
73428;SDS011;61643;49.564;17.412;2024-03-02T09:42:48;17.50;;;7.85;;
73428;SDS011;61643;49.564;17.412;2024-03-02T09:45:23;16.75;;;8.13;;
73428;SDS011;61643;49.564;17.412;2024-03-02T09:47:50;13.82;;;7.68;;
73428;SDS011;61643;49.564;17.412;2024-03-02T09:50:16;15.45;;;7.78;;
73428;SDS011;61643;49.564;17.412;2024-03-02T09:52:42;13.52;;;7.38;;
73428;SDS011;61643;49.564;17.412;2024-03-02T09:55:09;14.82;;;7.63;;
73428;SDS011;61643;49.564;17.412;2024-03-02T09:57:35;16.80;;;8.13;;
73428;SDS011;61643;49.564;17.412;2024-03-02T10:00:01;14.73;;;8.15;;
73428;SDS011;61643;49.564;17.412;2024-03-02T10:02:27;16.05;;;8.45;;
73428;SDS011;61643;49.564;17.412;2024-03-02T10:04:53;16.92;;;8.93;;
73428;SDS011;61643;49.564;17.412;2024-03-02T10:07:19;18.17;;;8.88;;
73428;SDS011;61643;49.564;17.412;2024-03-02T10:09:46;16.88;;;8.80;;
73428;SDS011;61643;49.564;17.412;2024-03-02T10:12:14;15.40;;;8.52;;
73428;SDS011;61643;49.564;17.412;2024-03-02T10:17:13;15.27;;;7.93;;
73428;SDS011;61643;49.564;17.412;2024-03-02T10:19:41;16.70;;;8.35;;
73428;SDS011;61643;49.564;17.412;2024-03-02T10:22:08;17.33;;;8.65;;
73428;SDS011;61643;49.564;17.412;2024-03-02T10:24:39;15.50;;;8.20;;
73428;SDS011;61643;49.564;17.412;2024-03-02T10:27:09;14.65;;;8.43;;
73428;SDS011;61643;49.564;17.412;2024-03-02T10:29:40;19.20;;;8.55;;
73428;SDS011;61643;49.564;17.412;2024-03-02T10:32:09;18.88;;;8.98;;
73428;SDS011;61643;49.564;17.412;2024-03-02T10:34:42;15.30;;;8.75;;
73428;SDS011;61643;49.564;17.412;2024-03-02T10:37:10;15.52;;;8.57;;
73428;SDS011;61643;49.564;17.412;2024-03-02T10:39:37;15.98;;;8.15;;
73428;SDS011;61643;49.564;17.412;2024-03-02T10:42:07;17.65;;;8.18;;
73428;SDS011;61643;49.564;17.412;2024-03-02T10:44:34;14.93;;;8.02;;
73428;SDS011;61643;49.564;17.412;2024-03-02T10:47:01;16.77;;;8.88;;
73428;SDS011;61643;49.564;17.412;2024-03-02T10:49:29;16.88;;;8.02;;
73428;SDS011;61643;49.564;17.412;2024-03-02T10:52:00;14.25;;;8.27;;
73428;SDS011;61643;49.564;17.412;2024-03-02T10:54:26;16.90;;;8.18;;
73428;SDS011;61643;49.564;17.412;2024-03-02T10:56:55;13.82;;;7.43;;
73428;SDS011;61643;49.564;17.412;2024-03-02T10:59:26;14.48;;;7.72;;
73428;SDS011;61643;49.564;17.412;2024-03-02T11:01:57;13.88;;;7.57;;
73428;SDS011;61643;49.564;17.412;2024-03-02T11:04:28;13.75;;;8.07;;
73428;SDS011;61643;49.564;17.412;2024-03-02T11:06:59;14.02;;;7.55;;
73428;SDS011;61643;49.564;17.412;2024-03-02T11:09:29;11.85;;;6.35;;
73428;SDS011;61643;49.564;17.412;2024-03-02T11:12:03;12.45;;;6.28;;
73428;SDS011;61643;49.564;17.412;2024-03-02T11:14:31;11.80;;;6.10;;
73428;SDS011;61643;49.564;17.412;2024-03-02T11:17:01;11.57;;;6.35;;
73428;SDS011;61643;49.564;17.412;2024-03-02T11:19:29;11.60;;;6.18;;
73428;SDS011;61643;49.564;17.412;2024-03-02T11:21:56;13.77;;;6.13;;
73428;SDS011;61643;49.564;17.412;2024-03-02T11:27:01;11.10;;;5.85;;
73428;SDS011;61643;49.564;17.412;2024-03-02T11:32:02;9.82;;;5.75;;
73428;SDS011;61643;49.564;17.412;2024-03-02T11:34:29;12.85;;;6.10;;
73428;SDS011;61643;49.564;17.412;2024-03-02T11:37:02;11.35;;;5.72;;
73428;SDS011;61643;49.564;17.412;2024-03-02T11:39:29;15.50;;;7.35;;
73428;SDS011;61643;49.564;17.412;2024-03-02T11:41:56;11.68;;;6.65;;
73428;SDS011;61643;49.564;17.412;2024-03-02T11:44:27;11.60;;;5.65;;
73428;SDS011;61643;49.564;17.412;2024-03-02T11:47:03;9.23;;;5.88;;
73428;SDS011;61643;49.564;17.412;2024-03-02T11:49:38;11.35;;;5.88;;
73428;SDS011;61643;49.564;17.412;2024-03-02T11:52:05;11.75;;;5.30;;
73428;SDS011;61643;49.564;17.412;2024-03-02T11:54:37;8.60;;;5.38;;
73428;SDS011;61643;49.564;17.412;2024-03-02T11:57:15;11.55;;;6.45;;
73428;SDS011;61643;49.564;17.412;2024-03-02T11:59:43;9.45;;;6.00;;
73428;SDS011;61643;49.564;17.412;2024-03-02T12:02:16;12.63;;;6.40;;
73428;SDS011;61643;49.564;17.412;2024-03-02T12:04:44;10.07;;;5.38;;
73428;SDS011;61643;49.564;17.412;2024-03-02T12:07:20;10.57;;;4.93;;
73428;SDS011;61643;49.564;17.412;2024-03-02T12:10:04;11.27;;;5.25;;
73428;SDS011;61643;49.564;17.412;2024-03-02T12:12:43;9.23;;;5.55;;
73428;SDS011;61643;49.564;17.412;2024-03-02T12:17:40;8.48;;;5.28;;
73428;SDS011;61643;49.564;17.412;2024-03-02T12:20:06;7.53;;;4.43;;
73428;SDS011;61643;49.564;17.412;2024-03-02T12:22:37;9.77;;;5.22;;
73428;SDS011;61643;49.564;17.412;2024-03-02T12:25:07;8.50;;;4.93;;
73428;SDS011;61643;49.564;17.412;2024-03-02T12:27:33;35.25;;;15.73;;
73428;SDS011;61643;49.564;17.412;2024-03-02T12:30:04;30.33;;;14.50;;
73428;SDS011;61643;49.564;17.412;2024-03-02T12:32:34;21.27;;;9.93;;
73428;SDS011;61643;49.564;17.412;2024-03-02T12:35:15;15.10;;;8.48;;
73428;SDS011;61643;49.564;17.412;2024-03-02T12:37:47;13.00;;;7.32;;
73428;SDS011;61643;49.564;17.412;2024-03-02T12:40:16;12.65;;;6.55;;
73428;SDS011;61643;49.564;17.412;2024-03-02T12:43:08;11.88;;;7.15;;
73428;SDS011;61643;49.564;17.412;2024-03-02T12:45:40;11.52;;;6.88;;
73428;SDS011;61643;49.564;17.412;2024-03-02T12:48:10;11.20;;;6.03;;
73428;SDS011;61643;49.564;17.412;2024-03-02T12:50:47;16.20;;;7.88;;
73428;SDS011;61643;49.564;17.412;2024-03-02T12:53:17;14.23;;;6.97;;
73428;SDS011;61643;49.564;17.412;2024-03-02T12:55:44;12.93;;;7.07;;
73428;SDS011;61643;49.564;17.412;2024-03-02T13:03:58;14.13;;;7.15;;
73428;SDS011;61643;49.564;17.412;2024-03-02T13:06:38;10.63;;;5.55;;
73428;SDS011;61643;49.564;17.412;2024-03-02T13:09:08;10.80;;;5.43;;
73428;SDS011;61643;49.564;17.412;2024-03-02T13:11:43;9.75;;;5.68;;
73428;SDS011;61643;49.564;17.412;2024-03-02T13:14:24;9.07;;;5.82;;
73428;SDS011;61643;49.564;17.412;2024-03-02T13:17:24;8.82;;;5.30;;
73428;SDS011;61643;49.564;17.412;2024-03-02T13:20:12;10.10;;;5.65;;
73428;SDS011;61643;49.564;17.412;2024-03-02T13:22:43;10.07;;;5.82;;
73428;SDS011;61643;49.564;17.412;2024-03-02T13:25:23;11.00;;;6.82;;
73428;SDS011;61643;49.564;17.412;2024-03-02T13:27:52;10.00;;;5.32;;
73428;SDS011;61643;49.564;17.412;2024-03-02T13:30:25;9.27;;;6.13;;
73428;SDS011;61643;49.564;17.412;2024-03-02T13:32:52;12.20;;;7.22;;
73428;SDS011;61643;49.564;17.412;2024-03-02T13:35:22;8.45;;;5.47;;
73428;SDS011;61643;49.564;17.412;2024-03-02T13:38:12;8.25;;;5.35;;
73428;SDS011;61643;49.564;17.412;2024-03-02T13:40:46;8.52;;;5.55;;
73428;SDS011;61643;49.564;17.412;2024-03-02T13:43:18;11.55;;;6.25;;
73428;SDS011;61643;49.564;17.412;2024-03-02T13:48:14;8.63;;;5.38;;
73428;SDS011;61643;49.564;17.412;2024-03-02T13:50:53;9.30;;;5.20;;
73428;SDS011;61643;49.564;17.412;2024-03-02T13:53:19;10.27;;;5.40;;
73428;SDS011;61643;49.564;17.412;2024-03-02T13:55:46;11.98;;;6.25;;
73428;SDS011;61643;49.564;17.412;2024-03-02T13:58:14;10.05;;;5.93;;
73428;SDS011;61643;49.564;17.412;2024-03-02T14:00:50;8.43;;;4.57;;
73428;SDS011;61643;49.564;17.412;2024-03-02T14:03:17;11.70;;;6.22;;
73428;SDS011;61643;49.564;17.412;2024-03-02T14:05:56;8.65;;;5.40;;
73428;SDS011;61643;49.564;17.412;2024-03-02T14:08:26;10.48;;;6.15;;
73428;SDS011;61643;49.564;17.412;2024-03-02T14:10:53;10.48;;;5.30;;
73428;SDS011;61643;49.564;17.412;2024-03-02T14:15:48;10.90;;;5.50;;
73428;SDS011;61643;49.564;17.412;2024-03-02T14:18:24;7.95;;;5.00;;
73428;SDS011;61643;49.564;17.412;2024-03-02T14:20:56;7.63;;;4.60;;
73428;SDS011;61643;49.564;17.412;2024-03-02T14:23:23;9.48;;;5.00;;
73428;SDS011;61643;49.564;17.412;2024-03-02T14:25:51;8.93;;;5.03;;
73428;SDS011;61643;49.564;17.412;2024-03-02T14:28:21;8.15;;;5.13;;
73428;SDS011;61643;49.564;17.412;2024-03-02T14:30:47;8.45;;;5.45;;
73428;SDS011;61643;49.564;17.412;2024-03-02T14:33:20;7.60;;;4.80;;
73428;SDS011;61643;49.564;17.412;2024-03-02T14:35:47;8.15;;;4.55;;
73428;SDS011;61643;49.564;17.412;2024-03-02T14:38:26;7.88;;;4.32;;
73428;SDS011;61643;49.564;17.412;2024-03-02T14:40:53;8.68;;;4.97;;
73428;SDS011;61643;49.564;17.412;2024-03-02T14:43:19;7.45;;;4.90;;
73428;SDS011;61643;49.564;17.412;2024-03-02T14:45:46;8.18;;;4.20;;
73428;SDS011;61643;49.564;17.412;2024-03-02T14:48:15;8.45;;;4.72;;
73428;SDS011;61643;49.564;17.412;2024-03-02T14:50:45;8.20;;;4.63;;
73428;SDS011;61643;49.564;17.412;2024-03-02T14:53:12;7.25;;;4.18;;
73428;SDS011;61643;49.564;17.412;2024-03-02T14:56:06;7.03;;;3.95;;
73428;SDS011;61643;49.564;17.412;2024-03-02T14:58:36;8.77;;;4.50;;